createdAt,value
2022-11-13T00:01:59.116Z,11.77
2022-11-13T00:08:19.539Z,12.00
2022-11-13T00:14:40.048Z,12.68
2022-11-13T00:21:12.886Z,13.15
2022-11-13T00:27:33.425Z,14.07
2022-11-13T00:40:34.399Z,12.00
2022-11-13T00:46:54.887Z,10.90
2022-11-13T00:53:18.258Z,12.00
2022-11-13T00:59:38.577Z,11.07
2022-11-13T01:05:59.042Z,10.65
2022-11-13T01:12:19.551Z,13.88
2022-11-13T01:18:43.911Z,12.93
2022-11-13T01:25:04.756Z,14.57
2022-11-13T01:31:27.783Z,13.52
2022-11-13T01:37:48.039Z,15.18
2022-11-13T01:44:13.520Z,12.90
2022-11-13T01:50:34.303Z,13.52
2022-11-13T01:56:55.230Z,10.68
2022-11-13T02:03:15.523Z,12.90
2022-11-13T02:09:48.599Z,12.02
2022-11-13T02:16:10.558Z,13.70
2022-11-13T02:22:30.887Z,14.80
2022-11-13T02:28:51.600Z,13.32
2022-11-13T02:35:22.353Z,15.02
2022-11-13T02:41:42.842Z,12.18
2022-11-13T02:48:03.511Z,11.98
2022-11-13T02:54:24.163Z,12.90
2022-11-13T03:00:44.738Z,12.85
2022-11-13T03:07:05.218Z,12.18
2022-11-13T03:13:27.629Z,12.55
2022-11-13T03:19:48.159Z,12.75
2022-11-13T03:26:14.044Z,13.07
2022-11-13T03:32:34.663Z,12.45
2022-11-13T03:38:55.346Z,13.20
2022-11-13T03:45:15.961Z,14.93
2022-11-13T03:51:36.572Z,15.25
2022-11-13T03:57:56.933Z,14.70
2022-11-13T04:04:17.438Z,13.45
2022-11-13T04:10:38.060Z,15.00
2022-11-13T04:16:58.475Z,13.48
2022-11-13T04:23:19.114Z,13.48
2022-11-13T04:29:39.659Z,13.02
2022-11-13T04:36:00.097Z,13.93
2022-11-13T04:42:39.178Z,15.43
2022-11-13T04:48:59.804Z,14.02
2022-11-13T04:55:20.525Z,16.17
2022-11-13T05:01:40.933Z,14.68
2022-11-13T05:08:01.354Z,13.88
2022-11-13T05:14:21.839Z,16.02
2022-11-13T05:20:42.503Z,26.92
2022-11-13T05:27:02.915Z,23.00
2022-11-13T05:33:23.432Z,17.75
2022-11-13T05:39:43.920Z,16.30
2022-11-13T05:46:06.929Z,19.30
2022-11-13T05:52:27.488Z,16.15
2022-11-13T05:58:49.236Z,15.90
2022-11-13T06:05:09.721Z,15.55
2022-11-13T06:11:31.087Z,15.80
2022-11-13T06:17:51.170Z,16.88
2022-11-13T06:24:13.093Z,16.98
2022-11-13T06:30:33.505Z,17.35
2022-11-13T06:36:57.104Z,16.58
2022-11-13T06:43:17.637Z,20.48
2022-11-13T06:49:38.210Z,19.42
2022-11-13T06:55:59.571Z,20.40
2022-11-13T07:02:19.750Z,16.77
2022-11-13T07:08:41.663Z,18.05
2022-11-13T07:15:02.124Z,17.65
2022-11-13T07:21:23.262Z,16.23
2022-11-13T07:27:46.640Z,19.50
2022-11-13T07:34:07.237Z,20.00
2022-11-13T07:40:27.991Z,20.42
2022-11-13T07:46:48.496Z,22.33
2022-11-13T07:53:10.308Z,21.75
2022-11-13T07:59:30.671Z,18.52
2022-11-13T08:05:51.326Z,19.13
2022-11-13T08:12:11.875Z,18.95
2022-11-13T08:18:32.974Z,16.75
2022-11-13T08:24:56.144Z,15.70
2022-11-13T08:31:17.147Z,15.00
2022-11-13T08:37:37.552Z,16.75
2022-11-13T08:43:58.111Z,17.63
2022-11-13T08:50:18.707Z,18.30
2022-11-13T08:56:39.027Z,17.85
2022-11-13T09:03:01.447Z,27.17
2022-11-13T09:09:23.389Z,25.20
2022-11-13T09:15:43.844Z,22.50
2022-11-13T09:22:04.694Z,25.13
2022-11-13T09:28:25.198Z,21.67
2022-11-13T09:34:45.576Z,21.00
2022-11-13T09:41:13.096Z,18.17
2022-11-13T09:47:53.399Z,20.03
2022-11-13T09:54:15.162Z,15.82
2022-11-13T10:00:36.541Z,16.48
2022-11-13T10:07:16.949Z,15.75
2022-11-13T10:13:48.585Z,13.93
2022-11-13T10:20:22.452Z,14.30
2022-11-13T10:26:42.844Z,13.32
2022-11-13T10:33:07.046Z,15.82
2022-11-13T10:39:27.780Z,12.15
2022-11-13T10:46:25.484Z,12.30
2022-11-13T10:52:48.866Z,13.38
2022-11-13T10:59:13.972Z,11.90
2022-11-13T11:05:34.735Z,11.48
2022-11-13T11:12:16.278Z,10.23
2022-11-13T11:18:45.712Z,9.98
2022-11-13T11:25:46.054Z,12.27
2022-11-13T11:32:19.140Z,11.18
2022-11-13T11:39:05.931Z,9.82
2022-11-13T11:45:32.909Z,9.73
2022-11-13T11:52:11.203Z,8.98
2022-11-13T11:59:04.137Z,9.20
2022-11-13T12:05:47.565Z,8.15
2022-11-13T12:12:30.768Z,6.97
2022-11-13T12:19:09.452Z,5.07
2022-11-13T12:25:55.543Z,5.07
2022-11-13T12:32:32.112Z,4.63
2022-11-13T12:39:29.309Z,4.10
2022-11-13T12:45:55.508Z,3.97
2022-11-13T12:52:15.960Z,4.10
2022-11-13T12:58:36.494Z,4.75
2022-11-13T13:05:19.681Z,4.47
2022-11-13T13:11:52.061Z,5.03
2022-11-13T13:18:18.709Z,4.85
2022-11-13T13:24:39.538Z,4.55
2022-11-13T13:31:03.617Z,5.10
2022-11-13T13:37:39.349Z,4.10
2022-11-13T13:44:09.971Z,3.03
2022-11-13T13:50:33.944Z,2.33
2022-11-13T13:56:57.156Z,2.50
2022-11-13T14:03:25.059Z,2.22
2022-11-13T14:09:45.375Z,2.27
2022-11-13T14:16:07.684Z,2.70
2022-11-13T14:22:28.290Z,3.10
2022-11-13T14:28:59.059Z,4.60
2022-11-13T14:35:22.777Z,4.57
2022-11-13T14:41:58.530Z,5.25
2022-11-13T14:48:23.470Z,5.28
2022-11-13T15:01:25.168Z,5.72
2022-11-13T15:07:46.217Z,6.53
2022-11-13T15:14:14.322Z,7.70
2022-11-13T15:20:34.793Z,9.35
2022-11-13T15:26:55.083Z,12.32
2022-11-13T15:33:16.568Z,11.52
2022-11-13T15:39:37.143Z,11.77
2022-11-13T15:45:57.626Z,13.13
2022-11-13T15:52:18.264Z,14.15
2022-11-13T15:58:41.288Z,16.02
2022-11-13T16:05:01.764Z,15.32
2022-11-13T16:11:22.248Z,15.45
2022-11-13T16:17:47.424Z,14.85
2022-11-13T16:24:10.984Z,16.33
2022-11-13T16:30:31.463Z,17.50
2022-11-13T16:36:52.004Z,16.67
2022-11-13T16:43:13.167Z,16.90
2022-11-13T16:49:33.727Z,16.80
2022-11-13T16:55:54.706Z,17.30
2022-11-13T17:02:18.096Z,20.15
2022-11-13T17:08:38.667Z,19.50
2022-11-13T17:14:59.019Z,19.73
2022-11-13T17:21:20.895Z,19.55
2022-11-13T17:27:41.407Z,19.58
2022-11-13T17:34:01.810Z,19.17
2022-11-13T17:40:22.341Z,20.20
2022-11-13T17:46:43.357Z,19.67
2022-11-13T17:53:04.037Z,19.02
2022-11-13T17:59:24.498Z,18.20
2022-11-13T18:05:45.008Z,17.55
2022-11-13T18:12:06.532Z,19.65
2022-11-13T18:18:26.951Z,24.23
2022-11-13T18:24:47.732Z,29.15
2022-11-13T18:31:10.851Z,27.85
2022-11-13T18:37:31.819Z,26.58
2022-11-13T18:43:53.334Z,27.92
2022-11-13T18:50:15.112Z,26.23
2022-11-13T18:56:36.027Z,25.75
2022-11-13T19:02:58.379Z,28.65
2022-11-13T19:09:19.244Z,28.42
2022-11-13T19:15:40.198Z,30.55
2022-11-13T19:22:04.319Z,27.67
2022-11-13T19:28:24.872Z,31.67
2022-11-13T19:34:46.748Z,30.35
2022-11-13T19:41:08.178Z,29.98
2022-11-13T19:47:28.316Z,30.98
2022-11-13T19:53:54.243Z,37.50
2022-11-13T20:00:15.004Z,29.63
2022-11-13T20:06:35.268Z,27.50
2022-11-13T20:12:55.811Z,29.05
2022-11-13T20:19:17.082Z,28.75
2022-11-13T20:25:37.707Z,56.22
2022-11-13T20:31:59.170Z,32.05
2022-11-13T20:38:19.422Z,30.13
2022-11-13T20:44:40.364Z,28.92
2022-11-13T20:51:28.170Z,29.80
2022-11-13T20:57:49.024Z,28.73
2022-11-13T21:04:09.397Z,31.80
2022-11-13T21:10:29.596Z,27.75
2022-11-13T21:16:50.211Z,31.48
2022-11-13T21:23:10.922Z,28.50
2022-11-13T21:29:31.392Z,26.98
2022-11-13T21:35:52.069Z,29.33
2022-11-13T21:42:12.402Z,31.48
2022-11-13T21:48:33.476Z,30.85
2022-11-13T21:54:53.987Z,33.05
2022-11-13T22:01:15.053Z,36.40
2022-11-13T22:07:35.600Z,38.67
2022-11-13T22:13:57.061Z,39.70
2022-11-13T22:20:17.608Z,40.72
2022-11-13T22:26:41.575Z,40.95
2022-11-13T22:33:04.526Z,39.90
2022-11-13T22:39:24.929Z,41.10
2022-11-13T22:45:45.960Z,42.28
2022-11-13T22:52:06.383Z,41.63
2022-11-13T22:58:28.057Z,39.40
2022-11-13T23:04:48.412Z,40.13
2022-11-13T23:11:14.886Z,40.10
2022-11-13T23:17:35.046Z,37.58
2022-11-13T23:23:56.430Z,40.78
2022-11-13T23:30:17.087Z,39.40
2022-11-13T23:36:37.681Z,38.15
2022-11-13T23:42:58.252Z,36.72
2022-11-13T23:49:18.634Z,38.97
2022-11-13T23:55:43.056Z,38.80
